Time;durP1;ratioP1;P1;durP2;ratioP2;P2;SDS_P1;SDS_P2;PMS_P1;PMS_P2;Temp;Humidity;BMP_temperature;BMP_pressure;BME280_temperature;BME280_humidity;BME280_pressure;Samples;Min_cycle;Max_cycle;Signal;HPM_P1;HPM_P2
2022/12/30 00:00:10;;;;;;;10.82;2.10;;;;;;;14.73;44.52;100879.09;5040796;28;20035;-62
2022/12/30 00:02:36;;;;;;;8.93;1.25;;;;;;;14.71;44.46;100889.19;5057744;28;20039;-62
2022/12/30 00:05:02;;;;;;;12.38;1.75;;;;;;;14.68;44.93;100887.66;5056183;28;20497;-62
2022/12/30 00:07:27;;;;;;;6.95;1.00;;;;;;;14.65;45.42;100877.16;5056536;28;20049;-62
2022/12/30 00:09:53;;;;;;;5.82;0.93;;;;;;;14.66;44.52;100888.78;5040425;28;20041;-64
2022/12/30 00:34:19;;;;;;;5.97;1.48;;;;;;;14.33;44.89;100901.06;5059178;28;20116;-61
2022/12/30 00:36:47;;;;;;;9.02;1.92;;;;;;;14.34;44.87;100906.31;5039022;28;20059;-64
2022/12/30 00:39:12;;;;;;;6.38;1.83;;;;;;;14.35;46.00;100912.56;5055762;28;20039;-61
2022/12/30 00:44:21;;;;;;;8.00;1.75;;;;;;;14.34;44.63;100911.72;5045256;28;20034;-62
2022/12/30 00:46:47;;;;;;;7.53;1.67;;;;;;;14.35;46.33;100913.41;5039585;28;20033;-61
2022/12/30 00:57:24;;;;;;;6.25;1.35;;;;;;;14.32;45.82;100908.31;5073845;28;20051;-63
2022/12/30 00:59:49;;;;;;;8.18;1.55;;;;;;;14.31;45.12;100909.28;5056185;28;20025;-62
2022/12/30 01:02:15;;;;;;;14.77;1.90;;;;;;;14.32;44.42;100919.09;5023446;28;20105;-62
2022/12/30 01:04:40;;;;;;;7.05;1.17;;;;;;;14.30;44.53;100915.66;5058300;28;20037;-63
2022/12/30 01:07:05;;;;;;;5.80;1.48;;;;;;;14.27;46.17;100915.97;5058569;28;20056;-63
2022/12/30 01:09:34;;;;;;;3.28;0.50;;;;;;;14.25;45.78;100912.59;5076329;28;20032;-62
2022/12/30 01:12:08;;;;;;;10.95;1.40;;;;;;;14.24;44.94;100905.50;5074843;28;20078;-62
2022/12/30 01:14:39;;;;;;;14.85;1.13;;;;;;;14.24;44.89;100908.19;5058649;28;20086;-62
2022/12/30 01:17:06;;;;;;;8.32;1.48;;;;;;;14.22;44.91;100907.50;5056029;28;20566;-62
2022/12/30 01:19:32;;;;;;;7.97;1.80;;;;;;;14.15;44.86;100901.03;5039208;28;20064;-62
2022/12/30 01:21:57;;;;;;;10.90;1.33;;;;;;;14.22;46.19;100912.03;5038984;28;20433;-62
2022/12/30 01:24:23;;;;;;;2.72;1.60;;;;;;;14.22;44.74;100918.28;5056040;28;20043;-62
2022/12/30 01:26:48;;;;;;;6.68;1.48;;;;;;;14.24;44.84;100913.56;5055914;28;20025;-62
2022/12/30 01:29:24;;;;;;;7.70;1.48;;;;;;;14.24;44.87;100916.25;5074288;28;20028;-62
2022/12/30 01:31:54;;;;;;;8.95;2.25;;;;;;;14.22;46.31;100920.97;5055660;28;20051;-62
2022/12/30 01:34:19;;;;;;;5.15;1.10;;;;;;;14.09;45.20;100907.00;5039064;28;20131;-62
2022/12/30 01:36:45;;;;;;;9.10;1.80;;;;;;;14.18;45.82;100927.63;5055483;28;20528;-62
2022/12/30 01:39:10;;;;;;;6.15;1.30;;;;;;;14.17;45.17;100925.97;5072569;28;20441;-62
2022/12/30 01:41:35;;;;;;;2.58;0.95;;;;;;;14.14;45.72;100931.66;5022525;28;20053;-62
2022/12/30 01:44:01;;;;;;;2.47;1.20;;;;;;;14.14;44.96;100918.19;5073684;28;20385;-62
2022/12/30 01:46:29;;;;;;;9.63;1.60;;;;;;;14.11;45.84;100910.41;5055522;28;20041;-62
2022/12/30 01:48:56;;;;;;;10.13;1.48;;;;;;;14.09;44.99;100912.41;5055069;28;20044;-62
2022/12/30 01:51:28;;;;;;;3.83;1.02;;;;;;;14.08;46.16;100915.22;5038860;28;20040;-62
2022/12/30 01:53:54;;;;;;;8.88;1.30;;;;;;;14.07;45.84;100917.06;5038658;28;20037;-62
2022/12/30 01:56:57;;;;;;;6.22;1.48;;;;;;;14.03;44.78;100918.38;5022636;28;20504;-62
2022/12/30 01:59:26;;;;;;;7.97;1.40;;;;;;;14.04;46.33;100927.31;5073216;28;20052;-62
2022/12/30 02:01:51;;;;;;;7.90;1.63;;;;;;;14.01;45.78;100926.59;5055473;28;20067;-62
2022/12/30 02:04:19;;;;;;;8.75;1.25;;;;;;;14.01;45.21;100933.84;5072613;28;20028;-62
2022/12/30 02:06:47;;;;;;;4.97;1.40;;;;;;;14.02;46.34;100938.22;5038702;28;20037;-62
2022/12/30 02:09:12;;;;;;;6.63;1.23;;;;;;;14.02;46.41;100944.47;5054274;28;20397;-62
2022/12/30 02:11:38;;;;;;;4.00;1.45;;;;;;;14.04;45.52;100955.09;5055322;28;20083;-62
2022/12/30 02:14:03;;;;;;;12.65;1.67;;;;;;;14.04;45.30;100955.09;5054758;28;20032;-62
2022/12/30 02:16:50;;;;;;;9.23;1.10;;;;;;;14.06;44.94;100971.94;5038359;28;20033;-62
2022/12/30 02:20:12;;;;;;;12.50;1.45;;;;;;;14.05;45.01;100966.69;5072873;28;20083;-62
2022/12/30 02:23:10;;;;;;;4.75;1.25;;;;;;;13.99;46.46;100965.44;4955717;28;20035;-62
2022/12/30 02:26:25;;;;;;;9.18;1.60;;;;;;;13.98;44.75;100958.38;4967702;28;20154;-62
2022/12/30 02:29:15;;;;;;;10.27;1.25;;;;;;;13.93;44.98;100949.91;5024901;28;20040;-62
2022/12/30 02:31:59;;;;;;;7.75;1.20;;;;;;;13.92;45.19;100948.19;5072871;28;20083;-62
2022/12/30 02:34:37;;;;;;;9.18;1.33;;;;;;;13.91;45.82;100949.19;5037921;28;20037;-63
2022/12/30 02:37:28;;;;;;;6.35;0.98;;;;;;;13.90;45.43;100945.63;5054515;28;20045;-62
2022/12/30 02:40:03;;;;;;;5.03;1.20;;;;;;;13.88;45.38;100946.78;5054518;28;20033;-62
2022/12/30 02:45:37;;;;;;;5.25;1.95;;;;;;;13.87;46.66;100939.72;5056985;28;20082;-64
2022/12/30 02:48:07;;;;;;;8.68;1.23;;;;;;;13.85;45.77;100936.31;5054273;28;20040;-63
2022/12/30 02:53:21;;;;;;;13.48;1.38;;;;;;;13.83;46.66;100924.84;5060891;28;20051;-63
2022/12/30 02:55:48;;;;;;;5.68;0.95;;;;;;;13.80;46.43;100922.44;5057856;28;20028;-63
2022/12/30 02:58:13;;;;;;;7.53;1.50;;;;;;;13.82;45.49;100925.81;5041173;28;20057;-63
2022/12/30 03:04:15;;;;;;;11.52;1.23;;;;;;;13.80;46.63;100908.97;5060443;28;20040;-62
2022/12/30 03:06:50;;;;;;;6.90;1.35;;;;;;;13.81;46.03;100921.44;5041076;28;20037;-63
2022/12/30 03:09:31;;;;;;;5.82;1.33;;;;;;;13.83;46.82;100906.84;5057595;28;20443;-62
2022/12/30 03:12:08;;;;;;;5.95;1.10;;;;;;;13.83;46.65;100906.84;5075997;28;20036;-63
2022/12/30 03:14:48;;;;;;;13.80;1.50;;;;;;;13.79;46.35;100904.59;5075843;28;20036;-62
2022/12/30 03:17:19;;;;;;;7.00;0.93;;;;;;;13.79;46.27;100900.03;5057698;28;20029;-62
2022/12/30 03:19:49;;;;;;;12.63;1.48;;;;;;;13.81;45.47;100918.75;5057481;28;20055;-62
2022/12/30 03:27:47;;;;;;;9.13;1.40;;;;;;;13.79;45.98;100893.84;5060044;28;20035;-62
2022/12/30 03:30:13;;;;;;;8.20;1.38;;;;;;;13.79;47.34;100899.22;5040693;28;20056;-62
2022/12/30 03:32:38;;;;;;;6.00;1.77;;;;;;;13.77;46.17;100895.81;5041172;28;20514;-64
2022/12/30 03:35:04;;;;;;;7.03;1.75;;;;;;;13.74;47.26;100894.25;5057419;28;20112;-62
2022/12/30 03:37:34;;;;;;;14.75;1.88;;;;;;;13.73;47.37;100889.03;5057202;28;20032;-62
2022/12/30 03:40:07;;;;;;;9.40;1.55;;;;;;;13.69;46.30;100882.25;5057594;28;20033;-62
2022/12/30 03:42:33;;;;;;;7.22;1.77;;;;;;;13.69;46.36;100882.25;5040421;28;20036;-62
2022/12/30 03:44:59;;;;;;;9.80;1.85;;;;;;;13.67;47.19;100878.84;5056737;28;20558;-62
2022/12/30 03:47:24;;;;;;;7.30;2.10;;;;;;;13.65;47.24;100875.47;5075021;28;20036;-63
2022/12/30 03:49:50;;;;;;;7.10;1.27;;;;;;;13.64;46.40;100868.38;5075044;28;20041;-62
2022/12/30 03:52:20;;;;;;;6.50;1.40;;;;;;;13.62;46.28;100873.06;5041465;28;20037;-62
2022/12/30 03:54:49;;;;;;;15.77;2.05;;;;;;;13.61;47.25;100874.91;5075014;28;20044;-62
2022/12/30 03:57:15;;;;;;;16.77;1.65;;;;;;;13.61;47.03;100868.69;5056934;28;20025;-62
2022/12/30 03:59:41;;;;;;;11.25;2.35;;;;;;;13.61;47.17;100868.69;5039785;28;20480;-62
2022/12/30 04:02:07;;;;;;;6.13;2.70;;;;;;;13.59;46.59;100867.97;5040087;28;20036;-63
2022/12/30 04:04:33;;;;;;;16.27;1.80;;;;;;;13.58;46.30;100867.13;5074814;28;20032;-62
2022/12/30 04:06:58;;;;;;;9.10;1.70;;;;;;;13.56;46.92;100870.97;5056545;28;20041;-62
2022/12/30 04:09:24;;;;;;;12.13;1.80;;;;;;;13.57;46.17;100872.69;5040108;28;20044;-62
2022/12/30 04:11:49;;;;;;;10.52;1.40;;;;;;;13.55;46.90;100880.03;5056463;28;20103;-62
2022/12/30 04:14:15;;;;;;;13.25;2.55;;;;;;;13.56;47.28;100876.34;5075349;28;20111;-63
2022/12/30 04:16:40;;;;;;;13.82;1.50;;;;;;;13.55;46.94;100885.41;5040718;28;20028;-62
2022/12/30 04:19:06;;;;;;;7.63;1.60;;;;;;;13.54;47.81;100887.25;5040578;28;20548;-62
2022/12/30 04:21:31;;;;;;;13.98;1.50;;;;;;;13.54;46.62;100889.13;5039774;28;20044;-62
2022/12/30 04:23:56;;;;;;;5.70;1.73;;;;;;;13.55;47.15;100890.78;5074067;28;20111;-63
2022/12/30 04:26:22;;;;;;;10.15;1.88;;;;;;;13.54;47.55;100889.13;5040174;28;20046;-62
2022/12/30 04:28:47;;;;;;;12.95;2.50;;;;;;;13.53;47.52;100882.88;5039728;28;20496;-62
2022/12/30 04:31:13;;;;;;;6.88;1.75;;;;;;;13.54;47.46;100879.16;5039742;28;20044;-63
2022/12/30 04:33:38;;;;;;;6.85;1.50;;;;;;;13.52;47.42;100880.31;5056243;28;20052;-62
2022/12/30 04:36:04;;;;;;;15.10;2.05;;;;;;;13.53;47.50;100887.41;5055926;28;20050;-62
2022/12/30 04:38:29;;;;;;;10.25;1.95;;;;;;;13.50;47.42;100888.56;5074615;28;20032;-62
2022/12/30 04:40:55;;;;;;;8.93;1.58;;;;;;;13.46;47.25;100867.44;5039292;28;20041;-63
2022/12/30 04:43:20;;;;;;;10.30;1.42;;;;;;;13.45;47.87;100872.00;5055938;28;20496;-62
2022/12/30 04:45:45;;;;;;;9.25;1.88;;;;;;;13.45;47.02;100863.94;5022570;28;20063;-62
2022/12/30 04:48:11;;;;;;;10.68;1.63;;;;;;;13.44;46.67;100867.59;5055814;28;20040;-62
2022/12/30 04:50:40;;;;;;;7.20;2.03;;;;;;;13.43;46.91;100860.50;5039776;28;20068;-63
2022/12/30 04:53:06;;;;;;;7.75;1.65;;;;;;;13.41;48.06;100863.38;5039459;28;20056;-62
2022/12/30 04:55:31;;;;;;;5.18;2.50;;;;;;;13.45;47.16;100873.84;5039180;28;20041;-62
2022/12/30 04:57:56;;;;;;;5.50;1.52;;;;;;;13.40;48.02;100867.03;5073641;28;20385;-63
2022/12/30 05:00:22;;;;;;;13.63;2.33;;;;;;;13.49;47.17;100875.22;5055591;28;20024;-62
2022/12/30 05:02:47;;;;;;;6.95;1.60;;;;;;;13.50;48.30;100879.63;5055523;28;20469;-63
2022/12/30 05:05:13;;;;;;;10.75;1.50;;;;;;;13.47;48.20;100878.06;5055738;28;20024;-63
2022/12/30 05:07:38;;;;;;;5.25;1.33;;;;;;;13.51;47.26;100889.41;5073148;28;20028;-62
2022/12/30 05:10:04;;;;;;;7.32;1.02;;;;;;;13.50;48.10;100887.69;5022255;28;20431;-62
2022/12/30 05:12:29;;;;;;;9.95;1.75;;;;;;;13.51;47.65;100895.63;5055268;28;20032;-62
2022/12/30 05:14:54;;;;;;;7.35;1.23;;;;;;;13.53;47.79;100882.03;5072719;28;20112;-62
2022/12/30 05:17:20;;;;;;;11.05;2.38;;;;;;;13.58;48.09;100882.44;5074064;28;20475;-64
2022/12/30 05:19:45;;;;;;;15.65;2.33;;;;;;;13.55;47.23;100877.34;5038308;28;20048;-63
2022/12/30 05:22:10;;;;;;;10.57;2.15;;;;;;;13.60;47.26;100889.34;5053741;28;20055;-62
2022/12/30 05:27:19;;;;;;;9.10;1.67;;;;;;;13.61;46.78;100868.69;5072734;28;20047;-63
2022/12/30 05:29:45;;;;;;;7.30;1.58;;;;;;;13.64;47.46;100863.00;5039089;28;20024;-63
2022/12/30 05:32:10;;;;;;;12.88;1.75;;;;;;;13.66;48.29;100856.47;5076411;28;20016;-63
2022/12/30 05:34:36;;;;;;;13.80;1.92;;;;;;;13.70;47.39;100862.41;5058389;28;20036;-62
2022/12/30 05:37:01;;;;;;;5.65;1.42;;;;;;;13.69;47.50;100861.56;5040591;28;20029;-62
2022/12/30 05:39:27;;;;;;;5.25;1.13;;;;;;;13.70;47.27;100862.41;5072507;28;20054;-63
2022/12/30 05:41:52;;;;;;;15.13;1.92;;;;;;;13.67;47.66;100851.94;5038209;28;20025;-63
2022/12/30 05:44:17;;;;;;;4.22;1.05;;;;;;;13.67;47.35;100860.00;5073329;28;20070;-63
2022/12/30 05:46:43;;;;;;;12.32;1.30;;;;;;;13.67;47.26;100857.31;5038137;28;20473;-63
2022/12/30 05:49:08;;;;;;;8.38;1.60;;;;;;;13.63;47.95;100864.84;5054962;28;20571;-62
2022/12/30 05:51:33;;;;;;;17.10;1.92;;;;;;;13.64;48.03;100857.63;5054794;28;20457;-62
2022/12/30 05:53:59;;;;;;;3.13;1.20;;;;;;;13.63;47.87;100850.53;5038260;28;20568;-62
2022/12/30 05:56:24;;;;;;;10.38;1.77;;;;;;;13.67;47.08;100851.94;5038490;28;20390;-62
2022/12/30 05:58:50;;;;;;;6.68;1.23;;;;;;;13.68;47.29;100845.56;5038179;28;20040;-63
2022/12/30 06:01:15;;;;;;;4.68;1.33;;;;;;;13.66;48.31;100839.47;5055027;28;20048;-62
2022/12/30 06:03:40;;;;;;;4.43;1.55;;;;;;;13.71;47.19;100837.16;5021811;28;20033;-62
2022/12/30 06:06:07;;;;;;;10.85;1.50;;;;;;;13.72;47.58;100826.28;5054585;28;20028;-62
2022/12/30 06:08:34;;;;;;;4.22;1.08;;;;;;;13.73;48.33;100824.44;5038769;28;20021;-63
2022/12/30 06:10:59;;;;;;;7.25;1.75;;;;;;;13.75;48.43;100835.88;5038533;28;20112;-62
2022/12/30 06:13:25;;;;;;;4.45;1.55;;;;;;;13.74;46.88;100824.25;5038369;28;20067;-62
2022/12/30 06:15:50;;;;;;;3.47;0.77;;;;;;;13.78;47.45;100827.50;5021571;28;20029;-62
2022/12/30 06:18:16;;;;;;;5.28;0.95;;;;;;;13.80;46.87;100814.75;5072014;28;20119;-63
2022/12/30 06:20:44;;;;;;;7.22;0.93;;;;;;;13.80;48.58;100820.13;5039311;28;20119;-62
2022/12/30 06:23:10;;;;;;;5.30;1.63;;;;;;;13.82;47.80;100818.13;5038914;28;20020;-62
2022/12/30 06:25:35;;;;;;;5.75;1.48;;;;;;;13.82;48.47;100813.59;5039710;28;20102;-62
2022/12/30 06:28:01;;;;;;;3.70;1.17;;;;;;;13.81;48.23;100813.75;5058195;28;20524;-62
2022/12/30 06:30:26;;;;;;;3.97;2.42;;;;;;;13.84;47.08;100817.00;5058548;28;20039;-62
2022/12/30 06:32:54;;;;;;;4.15;1.00;;;;;;;13.84;48.52;100817.00;5041783;28;20033;-62
2022/12/30 06:35:20;;;;;;;7.93;1.10;;;;;;;13.85;47.74;100812.44;5042047;28;20111;-62
2022/12/30 06:37:46;;;;;;;6.20;1.20;;;;;;;13.86;47.37;100814.16;5058209;28;20048;-63
2022/12/30 06:40:11;;;;;;;5.85;1.13;;;;;;;13.88;47.20;100814.84;5058211;28;20039;-62
2022/12/30 06:42:37;;;;;;;7.18;1.63;;;;;;;13.89;47.77;100813.84;5058601;28;20120;-62
2022/12/30 06:45:02;;;;;;;5.07;1.13;;;;;;;13.88;48.41;100804.06;5076630;28;20365;-62
2022/12/30 06:47:28;;;;;;;4.78;1.15;;;;;;;13.94;47.24;100806.16;5076721;28;20051;-62
2022/12/30 06:49:53;;;;;;;6.85;1.13;;;;;;;13.95;47.16;100808.72;5041635;28;20052;-63
2022/12/30 06:52:20;;;;;;;3.25;1.10;;;;;;;13.93;47.60;100808.00;5041297;28;20122;-62
2022/12/30 06:54:45;;;;;;;7.47;1.30;;;;;;;13.97;48.77;100800.47;5058254;28;20060;-63
2022/12/30 06:57:10;;;;;;;5.80;0.93;;;;;;;13.97;47.32;100795.09;5042045;28;20505;-62
2022/12/30 06:59:36;;;;;;;10.15;1.10;;;;;;;13.96;47.91;100783.47;5058393;28;20028;-62
2022/12/30 07:02:01;;;;;;;1.88;1.02;;;;;;;13.99;48.26;100782.31;5041133;28;20043;-62
2022/12/30 07:04:27;;;;;;;10.40;1.60;;;;;;;13.97;47.52;100762.75;5041079;28;20528;-63
2022/12/30 07:06:52;;;;;;;5.93;1.25;;;;;;;13.99;47.82;100769.69;5040969;28;20086;-62
2022/12/30 07:09:18;;;;;;;5.43;1.15;;;;;;;14.02;48.39;100758.63;5057735;28;20056;-63
2022/12/30 07:11:43;;;;;;;3.25;0.70;;;;;;;14.07;47.43;100757.31;5040880;28;20407;-62
2022/12/30 07:14:09;;;;;;;9.60;1.05;;;;;;;14.09;47.13;100748.09;5076263;28;20432;-63
2022/12/30 07:16:34;;;;;;;10.52;2.05;;;;;;;14.09;48.13;100734.63;5040866;28;20025;-62
2022/12/30 07:18:59;;;;;;;3.65;1.02;;;;;;;14.15;47.69;100747.47;5057627;28;20033;-63
2022/12/30 07:21:25;;;;;;;4.95;0.68;;;;;;;14.13;47.00;100745.91;5057436;28;20115;-63
2022/12/30 07:23:50;;;;;;;4.50;0.63;;;;;;;14.13;47.22;100732.44;5057406;28;20056;-63
2022/12/30 07:26:16;;;;;;;2.88;0.90;;;;;;;14.14;47.45;100735.00;5075746;28;20025;-62
2022/12/30 07:28:41;;;;;;;3.22;0.90;;;;;;;14.15;47.29;100728.63;5057432;28;20028;-63
2022/12/30 07:31:07;;;;;;;2.70;0.60;;;;;;;14.15;47.46;100725.06;5057471;28;20108;-63
2022/12/30 07:33:32;;;;;;;1.88;0.68;;;;;;;14.19;47.73;100730.00;5057625;28;20450;-62
2022/12/30 07:35:57;;;;;;;2.05;0.73;;;;;;;14.19;48.07;100711.13;5056825;28;20030;-62
2022/12/30 07:38:23;;;;;;;2.22;0.80;;;;;;;14.19;48.04;100702.19;5075021;28;20032;-63
2022/12/30 07:40:48;;;;;;;3.85;0.70;;;;;;;14.21;46.97;100717.19;5040218;28;20029;-63
2022/12/30 07:43:13;;;;;;;7.10;0.88;;;;;;;14.21;47.22;100701.03;5057061;28;20404;-62
2022/12/30 07:45:39;;;;;;;2.75;0.50;;;;;;;14.22;47.88;100707.28;5075586;28;20033;-63
2022/12/30 07:48:04;;;;;;;5.55;0.43;;;;;;;14.19;47.07;100704.88;5040907;28;20025;-62
2022/12/30 07:50:30;;;;;;;2.80;0.50;;;;;;;14.20;47.91;100699.38;5024909;28;20105;-63
2022/12/30 07:52:55;;;;;;;4.10;0.60;;;;;;;14.22;48.29;100697.34;5040618;28;20118;-62
2022/12/30 07:55:20;;;;;;;1.02;0.32;;;;;;;14.26;48.18;100692.50;5040357;28;20032;-63
2022/12/30 07:57:46;;;;;;;1.20;0.50;;;;;;;14.28;47.02;100680.56;5040358;28;20111;-62
2022/12/30 08:00:12;;;;;;;4.43;0.95;;;;;;;14.33;46.98;100682.81;5056660;28;20043;-62
2022/12/30 08:02:39;;;;;;;2.47;0.30;;;;;;;14.36;46.91;100667.19;5057151;28;20118;-63
2022/12/30 08:05:06;;;;;;;2.45;0.63;;;;;;;14.40;47.99;100668.56;5074940;28;20028;-63
2022/12/30 08:07:33;;;;;;;4.13;0.60;;;;;;;14.43;47.47;100660.16;5075176;28;20041;-63
2022/12/30 08:09:58;;;;;;;1.70;0.40;;;;;;;14.47;48.29;100652.59;5056530;28;20041;-63
2022/12/30 08:12:23;;;;;;;4.55;0.70;;;;;;;14.48;46.80;100649.75;5056568;28;20035;-63
2022/12/30 08:14:49;;;;;;;1.60;0.43;;;;;;;14.50;47.67;100653.13;5039628;28;20029;-62
2022/12/30 08:17:14;;;;;;;1.90;0.60;;;;;;;14.53;46.94;100657.34;5056876;28;20082;-62
2022/12/30 08:19:40;;;;;;;3.30;0.60;;;;;;;14.56;47.75;100647.13;5056379;28;20124;-62
2022/12/30 08:22:05;;;;;;;1.08;0.43;;;;;;;14.58;48.12;100645.09;5056311;28;20120;-62
2022/12/30 08:24:30;;;;;;;7.10;0.82;;;;;;;14.66;47.60;100640.75;5039684;28;20043;-63
2022/12/30 08:26:56;;;;;;;3.40;0.35;;;;;;;14.70;48.09;100639.44;5074069;28;20028;-62
2022/12/30 08:29:21;;;;;;;2.92;0.90;;;;;;;14.72;47.95;100626.63;5039987;28;20507;-63
2022/12/30 08:31:49;;;;;;;4.53;1.35;;;;;;;14.75;48.06;100612.81;5056142;28;20500;-62
2022/12/30 08:34:17;;;;;;;5.03;0.70;;;;;;;14.78;46.88;100612.50;5040014;28;20044;-63
2022/12/30 08:36:42;;;;;;;1.48;0.60;;;;;;;14.83;47.65;100610.16;5073463;28;20033;-63
2022/12/30 08:39:08;;;;;;;3.05;0.70;;;;;;;14.87;46.54;100614.25;5056001;28;20450;-62
2022/12/30 08:41:35;;;;;;;2.80;0.57;;;;;;;14.91;47.40;100605.66;5056392;28;20032;-62
2022/12/30 08:44:02;;;;;;;0.73;0.38;;;;;;;14.94;46.95;100608.03;5039173;28;20031;-62
2022/12/30 08:46:29;;;;;;;1.83;0.47;;;;;;;14.98;47.12;100603.16;5039476;28;20068;-62
2022/12/30 08:48:54;;;;;;;3.08;0.50;;;;;;;15.02;47.93;100601.81;5038443;28;20401;-65
2022/12/30 08:51:20;;;;;;;3.88;0.40;;;;;;;15.05;46.84;100601.47;5039707;28;20035;-62
2022/12/30 08:53:46;;;;;;;1.60;0.47;;;;;;;15.11;47.62;100593.59;5022769;28;20028;-64
2022/12/30 08:56:19;;;;;;;3.30;0.60;;;;;;;15.16;47.42;100588.53;5039728;28;20098;-62
2022/12/30 08:58:45;;;;;;;3.80;0.50;;;;;;;15.21;46.88;100582.66;5038949;28;20497;-64
2022/12/30 09:01:14;;;;;;;1.95;0.60;;;;;;;15.20;46.51;100580.97;5038932;28;20033;-63
2022/12/30 09:03:41;;;;;;;1.48;0.43;;;;;;;15.26;46.93;100585.72;5055765;28;20032;-62
2022/12/30 09:06:07;;;;;;;5.03;0.60;;;;;;;15.30;47.84;100580.84;5039202;28;20040;-62
2022/12/30 09:08:33;;;;;;;1.23;0.63;;;;;;;15.32;46.67;100579.66;5074061;28;20111;-63
2022/12/30 09:11:05;;;;;;;1.63;0.68;;;;;;;15.36;47.61;100570.19;5055476;28;20083;-63
2022/12/30 09:13:31;;;;;;;3.08;0.60;;;;;;;15.43;47.00;100565.84;5073837;28;20033;-62
2022/12/30 09:15:57;;;;;;;3.17;0.65;;;;;;;15.49;47.11;100550.88;5022495;28;20037;-62
2022/12/30 09:18:22;;;;;;;1.15;0.40;;;;;;;15.55;47.43;100545.63;5055472;28;20021;-62
2022/12/30 09:20:48;;;;;;;5.28;0.45;;;;;;;15.58;46.97;100534.47;5038823;28;20020;-63
2022/12/30 09:23:14;;;;;;;2.78;0.43;;;;;;;15.60;46.27;100537.88;5039490;28;20032;-62
2022/12/30 09:25:39;;;;;;;4.57;0.68;;;;;;;15.63;47.50;100532.09;5038986;28;20035;-63
2022/12/30 09:28:05;;;;;;;3.70;0.60;;;;;;;15.67;47.30;100535.31;5056865;28;20492;-63
2022/12/30 09:30:30;;;;;;;1.42;0.57;;;;;;;15.70;46.72;100530.44;5056267;28;20033;-66
2022/12/30 09:32:56;;;;;;;1.48;0.60;;;;;;;15.74;45.99;100531.78;5023482;28;20032;-63
2022/12/30 09:35:21;;;;;;;4.60;0.70;;;;;;;15.80;47.24;100529.44;5040461;28;20495;-65
2022/12/30 09:37:47;;;;;;;6.90;1.88;;;;;;;15.87;46.75;100530.41;5040461;28;20116;-63
2022/12/30 09:40:19;;;;;;;2.65;0.60;;;;;;;15.96;47.27;100521.31;5039430;28;20039;-63
2022/12/30 09:45:49;;;;;;;3.60;0.90;;;;;;;16.07;45.88;100518.25;5057335;28;20032;-63
2022/12/30 09:48:28;;;;;;;1.88;0.70;;;;;;;16.15;46.64;100526.31;5055002;28;20033;-63
2022/12/30 09:51:17;;;;;;;3.83;0.63;;;;;;;16.23;45.93;100523.59;5054762;28;20029;-63
2022/12/30 09:53:52;;;;;;;1.60;0.50;;;;;;;16.23;46.23;100507.38;5053521;28;20028;-64
2022/12/30 09:56:23;;;;;;;5.53;0.82;;;;;;;16.33;45.74;100537.78;5039675;28;20079;-63
2022/12/30 09:58:48;;;;;;;1.23;0.82;;;;;;;16.39;46.78;100520.84;5058965;28;20522;-64
2022/12/30 10:01:46;;;;;;;5.13;0.85;;;;;;;16.45;45.12;100508.47;5057328;28;20041;-63
2022/12/30 10:04:15;;;;;;;1.95;0.75;;;;;;;16.45;46.69;100495.81;5058128;28;20434;-62
2022/12/30 10:07:09;;;;;;;5.18;0.98;;;;;;;16.47;47.06;100496.47;5038772;28;20040;-62
2022/12/30 10:09:48;;;;;;;2.20;0.63;;;;;;;16.48;46.99;100481.94;5043363;28;20124;-62
2022/12/30 10:12:13;;;;;;;5.95;0.55;;;;;;;16.47;46.07;100471.31;5073003;28;20270;-62
2022/12/30 10:14:39;;;;;;;2.78;0.85;;;;;;;16.47;47.01;100480.25;5056254;28;20134;-62
2022/12/30 10:17:34;;;;;;;4.70;0.95;;;;;;;16.51;46.66;100470.78;5073243;28;20565;-63
2022/12/30 10:20:21;;;;;;;2.15;0.60;;;;;;;16.53;46.00;100463.34;5038168;28;20032;-63
2022/12/30 10:23:20;;;;;;;5.45;0.63;;;;;;;16.54;45.88;100456.09;5054511;28;20035;-63
2022/12/30 10:25:56;;;;;;;2.63;0.50;;;;;;;16.52;46.43;100445.44;5015275;28;20040;-62
2022/12/30 10:28:30;;;;;;;4.65;0.80;;;;;;;16.53;45.67;100440.84;5054595;28;20086;-62
2022/12/30 10:30:55;;;;;;;4.13;0.50;;;;;;;16.52;45.93;100439.19;5054393;28;20028;-63
2022/12/30 10:33:22;;;;;;;2.80;0.30;;;;;;;16.51;46.20;100441.03;5021676;28;20167;-63
2022/12/30 10:35:51;;;;;;;0.88;0.32;;;;;;;16.49;46.78;100424.16;5072807;28;20484;-62
2022/12/30 10:38:20;;;;;;;2.50;0.65;;;;;;;16.48;46.39;100411.66;5038532;28;20028;-62
2022/12/30 10:41:22;;;;;;;1.85;0.50;;;;;;;16.46;46.09;100408.28;5038444;28;20033;-62
2022/12/30 10:44:10;;;;;;;1.77;0.52;;;;;;;16.43;46.35;100403.22;5072257;28;20032;-62
2022/12/30 10:46:35;;;;;;;3.50;0.60;;;;;;;16.39;45.02;100388.38;5054346;28;20093;-62
2022/12/30 10:49:22;;;;;;;3.40;0.77;;;;;;;16.40;46.52;100371.16;5071770;28;20087;-63
2022/12/30 10:51:49;;;;;;;5.05;0.68;;;;;;;16.39;45.65;100374.84;5072374;28;20527;-62
2022/12/30 10:54:15;;;;;;;6.65;1.15;;;;;;;16.39;45.71;100364.03;5021545;28;20040;-62
2022/12/30 10:56:42;;;;;;;0.95;0.50;;;;;;;16.42;45.62;100346.63;5072459;28;20070;-63
2022/12/30 10:59:14;;;;;;;3.80;0.55;;;;;;;16.42;46.44;100346.63;5054680;28;20074;-62
2022/12/30 11:01:41;;;;;;;3.50;0.67;;;;;;;16.42;46.50;100328.53;5038247;28;20028;-62
2022/12/30 11:04:06;;;;;;;5.07;0.50;;;;;;;16.42;45.01;100320.44;5038793;28;20029;-62
2022/12/30 11:06:34;;;;;;;1.52;0.82;;;;;;;16.41;45.82;100302.56;5037605;28;20041;-62
2022/12/30 11:09:11;;;;;;;4.80;0.40;;;;;;;16.44;45.15;100295.94;5054057;28;20126;-62
2022/12/30 11:15:02;;;;;;;4.47;0.63;;;;;;;16.41;45.52;100286.34;5060543;28;20046;-62
2022/12/30 11:17:40;;;;;;;4.78;0.98;;;;;;;16.41;46.15;100272.81;5041664;28;20477;-62
2022/12/30 11:20:20;;;;;;;3.97;0.60;;;;;;;16.43;45.83;100278.03;5057817;28;20094;-62
2022/12/30 11:22:51;;;;;;;4.35;0.85;;;;;;;16.44;45.12;100258.09;5041426;28;20040;-67
2022/12/30 11:25:29;;;;;;;4.28;0.50;;;;;;;16.44;45.28;100253.53;5058117;28;20083;-62
2022/12/30 11:27:57;;;;;;;7.03;0.77;;;;;;;16.44;45.92;100248.13;5040876;28;20504;-62
2022/12/30 11:30:25;;;;;;;2.40;0.70;;;;;;;16.47;45.77;100252.31;5057999;28;20044;-62
2022/12/30 11:32:52;;;;;;;2.95;1.00;;;;;;;16.47;45.16;100249.63;5058104;28;20484;-63
2022/12/30 11:35:43;;;;;;;7.50;0.82;;;;;;;16.48;44.66;100225.09;5041041;28;20048;-63
2022/12/30 11:38:34;;;;;;;3.65;0.75;;;;;;;16.50;44.85;100230.34;5040669;28;20064;-63
2022/12/30 11:41:18;;;;;;;0.82;0.30;;;;;;;16.50;46.50;100220.34;5040761;28;20086;-63
2022/12/30 11:43:43;;;;;;;1.58;0.60;;;;;;;16.52;45.26;100203.94;5057779;28;20163;-62
2022/12/30 11:46:20;;;;;;;1.10;0.52;;;;;;;16.52;45.45;100193.97;5057109;28;20517;-62
2022/12/30 11:48:53;;;;;;;3.58;0.68;;;;;;;16.56;45.67;100184.50;5040908;28;20119;-63
2022/12/30 11:51:32;;;;;;;3.33;0.52;;;;;;;16.59;45.73;100176.00;5040333;28;20045;-63
2022/12/30 11:54:21;;;;;;;2.08;0.50;;;;;;;16.63;46.02;100160.28;5040656;28;20021;-63
2022/12/30 11:56:54;;;;;;;1.95;0.43;;;;;;;16.64;45.30;100156.53;5044928;28;20032;-62
2022/12/30 11:59:26;;;;;;;0.93;0.50;;;;;;;16.64;46.22;100145.69;5075236;28;20020;-62
2022/12/30 12:01:55;;;;;;;1.97;0.43;;;;;;;16.65;45.38;100142.00;5040044;28;20519;-62
2022/12/30 12:04:30;;;;;;;1.58;0.38;;;;;;;16.66;44.79;100128.31;5057070;28;20058;-62
2022/12/30 12:06:56;;;;;;;2.65;0.60;;;;;;;16.69;45.59;100121.69;5074556;28;20033;-63
2022/12/30 12:09:28;;;;;;;4.47;0.75;;;;;;;16.69;44.72;100117.13;5056976;28;20115;-63
2022/12/30 12:11:54;;;;;;;4.28;0.60;;;;;;;16.70;45.01;100112.50;5056778;28;20103;-63
2022/12/30 12:14:24;;;;;;;1.48;0.25;;;;;;;16.74;45.62;100114.69;5057241;28;20067;-64
2022/12/30 12:16:59;;;;;;;2.42;0.50;;;;;;;16.75;45.69;100097.41;5040447;28;20053;-63
2022/12/30 12:19:34;;;;;;;0.50;0.40;;;;;;;16.77;45.01;100092.66;5040335;28;20071;-63
2022/12/30 12:22:02;;;;;;;0.80;0.43;;;;;;;16.81;45.72;100083.13;5040326;28;20055;-63
2022/12/30 12:24:37;;;;;;;2.72;0.28;;;;;;;16.86;45.18;100071.78;5056514;28;20496;-63
2022/12/30 12:27:12;;;;;;;5.22;0.30;;;;;;;16.89;44.69;100061.41;5056438;28;20500;-62
2022/12/30 12:29:38;;;;;;;3.83;0.40;;;;;;;16.92;45.16;100059.38;5056801;28;20060;-63